createdAt,value
2022-11-19T00:00:20.174Z,0.67
2022-11-19T00:03:07.461Z,0.97
2022-11-19T00:05:54.730Z,0.50
2022-11-19T00:08:42.715Z,0.77
2022-11-19T00:11:47.622Z,0.40
2022-11-19T00:14:35.938Z,0.53
2022-11-19T00:17:23.293Z,0.40
2022-11-19T00:20:11.270Z,0.60
2022-11-19T00:22:58.852Z,0.43
2022-11-19T00:25:47.230Z,0.43
2022-11-19T00:28:34.220Z,0.40
2022-11-19T00:31:22.402Z,0.50
2022-11-19T00:34:09.449Z,0.50
2022-11-19T00:36:57.156Z,0.40
2022-11-19T00:39:44.158Z,0.30
2022-11-19T00:42:30.965Z,0.30
2022-11-19T00:45:18.174Z,0.33
2022-11-19T00:48:07.854Z,0.37
2022-11-19T00:50:54.702Z,0.50
2022-11-19T00:53:42.036Z,0.50
2022-11-19T00:56:29.529Z,0.30
2022-11-19T00:59:16.791Z,0.60
2022-11-19T01:02:04.489Z,0.30
2022-11-19T01:04:53.079Z,0.50
2022-11-19T01:07:40.220Z,0.30
2022-11-19T01:10:27.792Z,0.30
2022-11-19T01:13:32.380Z,0.53
2022-11-19T01:16:21.604Z,0.40
2022-11-19T01:19:10.687Z,0.50
2022-11-19T01:21:59.281Z,0.30
2022-11-19T01:24:46.363Z,0.40
2022-11-19T01:27:33.283Z,0.30
2022-11-19T01:30:20.538Z,0.50
2022-11-19T01:33:07.560Z,0.40
2022-11-19T01:35:59.638Z,0.67
2022-11-19T01:38:50.880Z,0.50
2022-11-19T01:41:37.865Z,0.40
2022-11-19T01:45:04.774Z,0.60
2022-11-19T01:47:52.360Z,0.37
2022-11-19T01:50:43.047Z,0.30
2022-11-19T01:53:33.240Z,0.50
2022-11-19T01:56:23.978Z,0.40
2022-11-19T01:59:15.358Z,0.50
2022-11-19T02:02:02.260Z,0.20
2022-11-19T02:04:51.715Z,0.43
2022-11-19T02:07:44.087Z,0.60
2022-11-19T02:10:42.732Z,0.40
2022-11-19T02:13:37.710Z,0.30
2022-11-19T02:16:32.739Z,0.30
2022-11-19T02:19:42.710Z,0.60
2022-11-19T02:22:52.274Z,0.50
2022-11-19T02:26:04.573Z,0.70
2022-11-19T02:28:57.157Z,0.47
2022-11-19T02:31:53.684Z,0.50
2022-11-19T02:34:45.117Z,0.37
2022-11-19T02:37:39.529Z,0.37
2022-11-19T02:40:30.446Z,0.40
2022-11-19T02:43:21.383Z,0.50
2022-11-19T02:46:14.579Z,0.63
2022-11-19T02:49:03.983Z,0.67
2022-11-19T02:51:51.564Z,0.70
2022-11-19T02:54:38.578Z,0.67
2022-11-19T02:57:25.847Z,0.50
2022-11-19T03:00:31.538Z,0.70
2022-11-19T03:03:39.911Z,0.50
2022-11-19T03:06:32.798Z,0.30
2022-11-19T03:09:21.076Z,0.70
2022-11-19T03:12:14.610Z,0.30
2022-11-19T03:15:30.756Z,0.60
2022-11-19T03:18:22.353Z,0.50
2022-11-19T03:21:17.146Z,0.73
2022-11-19T03:24:13.328Z,0.80
2022-11-19T03:27:06.176Z,0.60
2022-11-19T03:29:56.684Z,0.60
2022-11-19T03:32:49.553Z,0.40
2022-11-19T03:35:43.178Z,0.40
2022-11-19T03:38:32.953Z,0.50
2022-11-19T03:41:24.125Z,0.70
2022-11-19T03:44:17.768Z,0.83
2022-11-19T03:47:10.640Z,0.67
2022-11-19T03:50:04.023Z,0.60
2022-11-19T03:52:51.394Z,0.80
2022-11-19T03:55:44.065Z,0.50
2022-11-19T03:58:39.164Z,0.67
2022-11-19T04:01:26.752Z,0.93
2022-11-19T04:04:31.363Z,0.50
2022-11-19T04:07:22.189Z,0.47
2022-11-19T04:10:10.176Z,0.70
2022-11-19T04:12:57.059Z,0.53
2022-11-19T04:15:45.767Z,0.80
2022-11-19T04:18:32.665Z,0.60
2022-11-19T04:21:19.963Z,0.97
2022-11-19T04:24:07.761Z,0.70
2022-11-19T04:26:54.905Z,0.67
2022-11-19T04:29:41.765Z,0.50
2022-11-19T04:32:30.249Z,1.17
2022-11-19T04:35:18.405Z,0.80
2022-11-19T04:38:05.852Z,0.70
2022-11-19T04:40:52.713Z,1.03
2022-11-19T04:43:39.763Z,1.13
2022-11-19T04:46:26.559Z,1.00
2022-11-19T04:49:15.260Z,1.20
2022-11-19T04:52:02.318Z,0.80
2022-11-19T04:54:49.234Z,0.90
2022-11-19T04:57:36.392Z,0.80
2022-11-19T05:00:23.107Z,1.07
2022-11-19T05:03:09.700Z,1.03
2022-11-19T05:05:57.954Z,0.90
2022-11-19T05:08:45.043Z,0.63
2022-11-19T05:11:31.915Z,0.43
2022-11-19T05:14:18.746Z,1.17
2022-11-19T05:17:05.905Z,0.53
2022-11-19T05:19:53.308Z,0.60
2022-11-19T05:22:41.742Z,0.70
2022-11-19T05:25:28.747Z,0.67
2022-11-19T05:28:16.085Z,1.07
2022-11-19T05:31:04.136Z,0.80
2022-11-19T05:33:50.887Z,0.73
2022-11-19T05:36:37.684Z,0.63
2022-11-19T05:39:26.249Z,0.83
2022-11-19T05:42:13.055Z,0.60
2022-11-19T05:45:00.147Z,0.87
2022-11-19T05:47:48.753Z,0.93
2022-11-19T05:50:35.883Z,0.80
2022-11-19T05:53:22.756Z,1.07
2022-11-19T05:56:11.260Z,0.80
2022-11-19T05:58:58.356Z,1.10
2022-11-19T06:01:45.243Z,1.00
2022-11-19T06:04:32.000Z,1.20
2022-11-19T06:07:19.256Z,1.03
2022-11-19T06:10:07.003Z,0.80
2022-11-19T06:12:55.681Z,0.77
2022-11-19T06:15:42.741Z,0.80
2022-11-19T06:18:30.037Z,1.33
2022-11-19T06:21:17.304Z,1.23
2022-11-19T06:24:04.278Z,0.90
2022-11-19T06:26:51.216Z,1.20
2022-11-19T06:29:40.682Z,1.60
2022-11-19T06:32:27.698Z,1.43
2022-11-19T06:35:15.064Z,1.50
2022-11-19T06:38:02.448Z,2.03
2022-11-19T06:40:50.159Z,2.20
2022-11-19T06:43:37.124Z,1.37
2022-11-19T06:46:25.395Z,1.30
2022-11-19T06:49:16.842Z,1.17
2022-11-19T06:52:06.865Z,1.37
2022-11-19T06:54:53.804Z,1.73
2022-11-19T06:57:40.745Z,1.70
2022-11-19T07:00:27.623Z,2.43
2022-11-19T07:03:17.023Z,2.87
2022-11-19T07:06:06.255Z,2.53
2022-11-19T07:08:53.424Z,2.20
2022-11-19T07:11:40.819Z,3.70
2022-11-19T07:14:27.881Z,2.30
2022-11-19T07:17:15.269Z,1.37
2022-11-19T07:20:04.024Z,1.57
2022-11-19T07:22:54.812Z,1.37
2022-11-19T07:25:45.740Z,1.50
2022-11-19T07:28:32.692Z,1.30
2022-11-19T07:31:19.806Z,1.83
2022-11-19T07:34:08.356Z,1.60
2022-11-19T07:36:56.830Z,1.70
2022-11-19T07:39:43.902Z,2.30
2022-11-19T07:42:48.568Z,2.33
2022-11-19T07:45:38.789Z,1.50
2022-11-19T07:48:25.538Z,1.57
2022-11-19T07:51:12.662Z,1.40
2022-11-19T07:54:01.339Z,1.07
2022-11-19T07:56:48.391Z,1.00
2022-11-19T07:59:35.635Z,1.53
2022-11-19T08:02:23.024Z,1.40
2022-11-19T08:05:10.614Z,1.20
2022-11-19T08:07:57.529Z,1.03
2022-11-19T08:10:46.214Z,1.67
2022-11-19T08:13:33.520Z,2.37
2022-11-19T08:16:34.674Z,1.03
2022-11-19T08:19:22.004Z,1.30
2022-11-19T08:22:12.311Z,1.33
2022-11-19T08:24:59.279Z,1.00
2022-11-19T08:27:48.169Z,1.20
2022-11-19T08:30:35.348Z,1.20
2022-11-19T08:33:22.826Z,0.80
2022-11-19T08:36:09.834Z,1.07
2022-11-19T08:38:58.550Z,0.80
2022-11-19T08:42:03.000Z,1.00
2022-11-19T08:44:53.365Z,0.80
2022-11-19T08:47:40.767Z,0.70
2022-11-19T08:50:28.049Z,0.73
2022-11-19T08:53:14.890Z,0.70
2022-11-19T08:56:02.349Z,0.73
2022-11-19T08:58:49.469Z,0.65
2022-11-19T09:01:38.142Z,0.60
2022-11-19T09:04:25.310Z,0.75
2022-11-19T09:07:12.718Z,0.60
2022-11-19T09:09:59.617Z,0.70
2022-11-19T09:12:46.473Z,0.80
2022-11-19T09:15:33.369Z,0.70
2022-11-19T09:18:22.097Z,1.00
2022-11-19T09:21:10.490Z,0.60
2022-11-19T09:23:57.858Z,0.52
2022-11-19T09:26:48.926Z,0.70
2022-11-19T09:29:39.719Z,0.60
2022-11-19T09:32:26.627Z,0.60
2022-11-19T09:35:15.130Z,0.77
2022-11-19T09:38:01.891Z,0.43
2022-11-19T09:40:51.185Z,0.70
2022-11-19T09:43:46.584Z,1.20
2022-11-19T09:46:43.372Z,0.43
2022-11-19T09:49:35.552Z,0.50
2022-11-19T09:52:29.840Z,0.40
2022-11-19T09:55:20.809Z,0.53
2022-11-19T09:58:15.582Z,0.70
2022-11-19T10:01:02.984Z,0.60
2022-11-19T10:03:52.248Z,0.80
2022-11-19T10:06:49.757Z,0.77
2022-11-19T10:09:58.026Z,0.90
2022-11-19T10:13:12.161Z,0.90
2022-11-19T10:16:16.127Z,0.57
2022-11-19T10:19:15.125Z,0.70
2022-11-19T10:22:10.630Z,1.13
2022-11-19T10:25:06.496Z,0.90
2022-11-19T10:27:55.780Z,0.57
2022-11-19T10:30:45.355Z,0.70
2022-11-19T10:33:36.302Z,0.60
2022-11-19T10:36:27.521Z,0.80
2022-11-19T10:39:20.595Z,0.80
2022-11-19T10:42:19.212Z,1.23
2022-11-19T10:45:11.363Z,0.80
2022-11-19T10:48:09.207Z,0.70
2022-11-19T10:50:59.350Z,0.50
2022-11-19T10:53:47.692Z,0.50
2022-11-19T10:56:40.410Z,0.80
2022-11-19T10:59:32.974Z,0.70
2022-11-19T11:02:31.554Z,0.50
2022-11-19T11:05:20.520Z,0.57
2022-11-19T11:08:12.633Z,0.60
2022-11-19T11:11:00.079Z,0.80
2022-11-19T11:14:04.853Z,0.80
2022-11-19T11:16:52.986Z,1.00
2022-11-19T11:19:40.168Z,0.70
2022-11-19T11:22:28.201Z,0.70
2022-11-19T11:25:22.182Z,0.90
2022-11-19T11:28:13.946Z,1.33
2022-11-19T11:31:02.867Z,1.00
2022-11-19T11:33:58.478Z,0.77
2022-11-19T11:36:46.194Z,0.67
2022-11-19T11:39:35.807Z,0.53
2022-11-19T11:42:26.572Z,0.80
2022-11-19T11:45:23.980Z,0.80
2022-11-19T11:48:20.907Z,0.90
2022-11-19T11:51:09.710Z,0.87
2022-11-19T11:54:09.835Z,1.00
2022-11-19T11:57:16.967Z,0.60
2022-11-19T12:00:25.768Z,0.97
2022-11-19T12:03:14.696Z,0.60
2022-11-19T12:06:08.173Z,0.73
2022-11-19T12:09:04.537Z,0.60
2022-11-19T12:11:56.698Z,1.00
2022-11-19T12:14:55.696Z,0.80
2022-11-19T12:17:49.284Z,0.77
2022-11-19T12:20:41.690Z,0.90
2022-11-19T12:23:46.848Z,0.70
2022-11-19T12:26:47.492Z,0.50
2022-11-19T12:29:42.967Z,0.70
2022-11-19T12:32:59.525Z,0.50
2022-11-19T12:35:55.821Z,0.50
2022-11-19T12:38:54.037Z,0.50
2022-11-19T12:42:01.427Z,0.53
2022-11-19T12:44:56.201Z,0.57
2022-11-19T12:48:02.814Z,0.53
2022-11-19T12:50:57.609Z,0.50
2022-11-19T12:54:03.178Z,0.57
2022-11-19T12:57:00.001Z,0.80
2022-11-19T13:00:07.142Z,0.90
2022-11-19T13:03:05.194Z,0.73
2022-11-19T13:05:55.745Z,0.50
2022-11-19T13:08:49.476Z,0.60
2022-11-19T13:11:42.641Z,0.50
2022-11-19T13:14:38.088Z,0.70
2022-11-19T13:17:30.728Z,1.00
2022-11-19T13:20:26.878Z,0.90
2022-11-19T13:23:18.237Z,0.80
2022-11-19T13:26:10.754Z,0.87
2022-11-19T13:29:02.902Z,0.63
2022-11-19T13:31:54.907Z,0.90
2022-11-19T13:34:47.849Z,0.80
2022-11-19T13:37:46.618Z,0.70
2022-11-19T13:40:37.914Z,0.70
2022-11-19T13:43:42.517Z,0.80
2022-11-19T13:46:35.233Z,0.80
2022-11-19T13:49:27.627Z,0.70
2022-11-19T13:52:24.128Z,0.93
2022-11-19T13:55:30.764Z,0.80
2022-11-19T13:58:23.045Z,0.90
2022-11-19T14:01:36.446Z,1.00
2022-11-19T14:04:57.138Z,0.90
2022-11-19T14:08:04.335Z,1.50
2022-11-19T14:11:04.333Z,0.97
2022-11-19T14:14:31.886Z,0.50
2022-11-19T14:17:47.147Z,0.30
2022-11-19T14:20:59.138Z,0.20
2022-11-19T14:24:05.658Z,0.60
2022-11-19T14:27:17.256Z,0.80
2022-11-19T14:30:07.209Z,0.70
2022-11-19T14:32:54.361Z,0.30
2022-11-19T14:35:43.055Z,0.60
2022-11-19T14:38:36.255Z,0.80
2022-11-19T14:41:30.786Z,0.40
2022-11-19T14:44:36.119Z,0.60
2022-11-19T14:47:35.126Z,0.40
2022-11-19T14:50:27.984Z,0.50
2022-11-19T14:53:21.810Z,0.40
2022-11-19T14:56:13.343Z,0.47
2022-11-19T14:59:10.564Z,0.37
2022-11-19T15:02:01.467Z,0.83
2022-11-19T15:04:58.901Z,0.63
2022-11-19T15:07:52.916Z,0.70
2022-11-19T15:11:05.077Z,0.57
2022-11-19T15:14:39.717Z,0.53
2022-11-19T15:17:27.250Z,0.70
2022-11-19T15:20:33.346Z,0.40
2022-11-19T15:23:27.253Z,0.40
2022-11-19T15:26:22.298Z,0.70
2022-11-19T15:29:17.881Z,0.73
2022-11-19T15:32:23.164Z,0.60
2022-11-19T15:35:32.936Z,0.70
2022-11-19T15:38:32.503Z,0.73
2022-11-19T15:41:25.064Z,0.70
2022-11-19T15:44:18.491Z,0.83
2022-11-19T15:47:12.581Z,0.87
2022-11-19T15:50:00.379Z,0.90
2022-11-19T15:53:00.114Z,0.80
2022-11-19T15:55:54.333Z,0.67
2022-11-19T15:58:46.686Z,0.90
2022-11-19T16:01:34.542Z,0.80
2022-11-19T16:04:22.121Z,0.77
2022-11-19T16:07:11.692Z,0.73
2022-11-19T16:10:00.174Z,0.67
2022-11-19T16:13:12.681Z,0.70
2022-11-19T16:16:19.363Z,0.80
2022-11-19T16:19:07.403Z,0.60
2022-11-19T16:21:57.996Z,0.90
2022-11-19T16:25:02.214Z,1.30
2022-11-19T16:27:49.583Z,0.80
2022-11-19T16:30:46.486Z,0.83
2022-11-19T16:33:35.974Z,0.90
2022-11-19T16:36:23.593Z,0.80
2022-11-19T16:39:13.694Z,0.87
2022-11-19T16:42:19.398Z,1.17
2022-11-19T16:45:10.022Z,1.47
2022-11-19T16:47:58.430Z,1.77
2022-11-19T16:50:47.179Z,1.50
2022-11-19T16:53:46.700Z,1.00
2022-11-19T16:56:56.449Z,0.70
2022-11-19T16:59:49.333Z,1.10
2022-11-19T17:02:40.726Z,1.10
2022-11-19T17:05:29.756Z,0.90
2022-11-19T17:08:25.270Z,1.07
2022-11-19T17:11:38.294Z,1.10
2022-11-19T17:14:44.224Z,1.47
2022-11-19T17:17:41.512Z,1.33
2022-11-19T17:20:52.708Z,1.20
2022-11-19T17:23:49.877Z,1.10
2022-11-19T17:26:37.081Z,1.27
2022-11-19T17:29:26.147Z,1.83
2022-11-19T17:32:13.584Z,1.60
2022-11-19T17:35:00.807Z,1.50
2022-11-19T17:37:48.197Z,1.10
2022-11-19T17:40:36.632Z,1.50
2022-11-19T17:43:43.114Z,2.07
2022-11-19T17:46:31.094Z,1.30
2022-11-19T17:49:18.403Z,1.60
2022-11-19T17:52:06.154Z,1.80
2022-11-19T17:58:13.121Z,2.00
2022-11-19T18:01:00.322Z,2.00
2022-11-19T18:03:48.382Z,1.80
2022-11-19T18:06:37.426Z,1.60
2022-11-19T18:09:24.535Z,1.57
2022-11-19T18:12:15.807Z,1.20
2022-11-19T18:15:04.474Z,1.70
2022-11-19T18:17:52.502Z,1.60
2022-11-19T18:20:39.680Z,1.50
2022-11-19T18:23:26.718Z,1.30
2022-11-19T18:26:14.939Z,1.13
2022-11-19T18:29:01.879Z,1.50
2022-11-19T18:31:53.417Z,1.53
2022-11-19T18:34:40.679Z,1.67
2022-11-19T18:37:28.344Z,1.47
2022-11-19T18:40:16.939Z,1.50
2022-11-19T18:43:39.847Z,2.00
2022-11-19T18:46:27.534Z,1.83
2022-11-19T18:49:16.271Z,1.70
2022-11-19T18:52:03.402Z,1.70
2022-11-19T18:54:50.708Z,1.67
2022-11-19T18:57:37.637Z,1.27
2022-11-19T19:00:25.122Z,1.40
2022-11-19T19:03:13.690Z,1.97
2022-11-19T19:06:07.306Z,1.50
2022-11-19T19:08:54.133Z,1.70
2022-11-19T19:11:58.944Z,1.60
2022-11-19T19:14:49.211Z,2.00
2022-11-19T19:17:36.254Z,1.80
2022-11-19T19:20:23.361Z,1.60
2022-11-19T19:23:12.255Z,1.40
2022-11-19T19:25:59.667Z,1.20
2022-11-19T19:28:50.716Z,1.23
2022-11-19T19:31:38.066Z,1.50
2022-11-19T19:34:25.228Z,1.43
2022-11-19T19:37:12.555Z,1.77
2022-11-19T19:40:01.288Z,1.97
2022-11-19T19:42:48.383Z,2.30
2022-11-19T19:45:35.938Z,2.20
2022-11-19T19:48:23.072Z,2.07
2022-11-19T19:51:10.192Z,1.70
2022-11-19T19:53:57.184Z,1.90
2022-11-19T19:56:46.154Z,1.87
2022-11-19T19:59:34.008Z,2.00
2022-11-19T20:02:21.266Z,2.03
2022-11-19T20:05:09.261Z,2.50
2022-11-19T20:07:57.491Z,2.77
2022-11-19T20:10:44.621Z,2.43
2022-11-19T20:13:33.234Z,3.20
2022-11-19T20:16:22.517Z,2.10
2022-11-19T20:19:14.462Z,2.27
2022-11-19T20:22:01.978Z,1.97
2022-11-19T20:24:49.403Z,2.00
2022-11-19T20:27:36.415Z,2.70
2022-11-19T20:30:24.725Z,1.80
2022-11-19T20:33:11.953Z,2.13
2022-11-19T20:35:59.117Z,2.00
2022-11-19T20:38:47.263Z,2.40
2022-11-19T20:41:57.527Z,1.93
2022-11-19T20:44:44.817Z,1.60
2022-11-19T20:47:33.153Z,1.83
2022-11-19T20:50:20.751Z,1.80
2022-11-19T20:53:09.063Z,1.87
2022-11-19T20:56:05.126Z,1.50
2022-11-19T20:58:52.467Z,1.93
2022-11-19T21:01:40.083Z,1.60
2022-11-19T21:04:31.488Z,2.10
2022-11-19T21:07:18.597Z,1.67
2022-11-19T21:10:08.099Z,1.30
2022-11-19T21:13:04.199Z,1.70
2022-11-19T21:15:51.181Z,1.30
2022-11-19T21:18:39.554Z,1.50
2022-11-19T21:21:28.602Z,1.30
2022-11-19T21:24:15.441Z,1.40
2022-11-19T21:27:02.887Z,1.30
2022-11-19T21:29:49.894Z,1.07
2022-11-19T21:32:37.172Z,1.00
2022-11-19T21:35:24.718Z,1.30
2022-11-19T21:38:13.034Z,1.33
2022-11-19T21:41:00.796Z,1.03
2022-11-19T21:43:47.827Z,1.60
2022-11-19T21:46:36.006Z,1.40
2022-11-19T21:49:23.744Z,1.40
2022-11-19T21:52:10.937Z,1.10
2022-11-19T21:54:59.634Z,1.13
2022-11-19T21:57:46.987Z,1.40
2022-11-19T22:00:34.858Z,1.63
2022-11-19T22:03:21.865Z,1.70
2022-11-19T22:06:11.677Z,1.27
2022-11-19T22:08:58.859Z,1.10
2022-11-19T22:11:47.436Z,1.10
2022-11-19T22:14:34.643Z,1.30
2022-11-19T22:17:22.106Z,2.47
2022-11-19T22:20:09.909Z,2.00
2022-11-19T22:22:58.263Z,2.70
2022-11-19T22:25:45.506Z,3.60
2022-11-19T22:28:34.421Z,1.70
2022-11-19T22:31:21.629Z,1.33
2022-11-19T22:34:08.631Z,1.50
2022-11-19T22:36:56.596Z,1.57
2022-11-19T22:39:44.363Z,1.50
2022-11-19T22:42:31.890Z,1.30
2022-11-19T22:45:20.513Z,1.50
2022-11-19T22:48:08.170Z,1.50
2022-11-19T22:50:55.627Z,0.97
2022-11-19T22:53:42.946Z,1.37
2022-11-19T22:56:32.026Z,1.30
2022-11-19T22:59:19.780Z,1.20
2022-11-19T23:02:08.695Z,1.30
2022-11-19T23:04:55.843Z,1.77
2022-11-19T23:07:42.824Z,1.70
2022-11-19T23:10:30.796Z,1.33
2022-11-19T23:13:32.585Z,0.97
2022-11-19T23:16:21.403Z,1.30
2022-11-19T23:19:10.901Z,1.40
2022-11-19T23:21:58.050Z,1.20
2022-11-19T23:24:45.085Z,1.23
2022-11-19T23:27:31.992Z,1.10
2022-11-19T23:30:19.033Z,1.20
2022-11-19T23:33:06.011Z,1.10
2022-11-19T23:35:54.181Z,1.27
2022-11-19T23:38:42.836Z,1.33
2022-11-19T23:41:32.251Z,1.60
2022-11-19T23:44:19.840Z,1.37
2022-11-19T23:47:08.493Z,1.27
2022-11-19T23:49:55.686Z,1.40
2022-11-19T23:52:44.386Z,1.40
2022-11-19T23:55:31.662Z,1.50
2022-11-19T23:58:18.952Z,1.30
